sensor_id;sensor_type;location;lat;lon;timestamp;temperature;humidity
28608;DHT22;15802;45.654;13.804;2023-06-04T00:01:41;20.60;99.90
28608;DHT22;15802;45.654;13.804;2023-06-04T00:04:07;20.60;99.90
28608;DHT22;15802;45.654;13.804;2023-06-04T00:06:32;20.60;99.90
28608;DHT22;15802;45.654;13.804;2023-06-04T00:08:58;20.60;99.90
28608;DHT22;15802;45.654;13.804;2023-06-04T00:11:23;20.60;99.90
28608;DHT22;15802;45.654;13.804;2023-06-04T00:13:51;20.60;99.90
28608;DHT22;15802;45.654;13.804;2023-06-04T00:16:17;20.60;99.90
28608;DHT22;15802;45.654;13.804;2023-06-04T00:18:43;20.60;99.90
28608;DHT22;15802;45.654;13.804;2023-06-04T00:21:08;20.60;99.90
28608;DHT22;15802;45.654;13.804;2023-06-04T00:23:34;20.60;99.90
28608;DHT22;15802;45.654;13.804;2023-06-04T00:26:00;20.60;99.90
28608;DHT22;15802;45.654;13.804;2023-06-04T00:28:26;20.60;99.90
28608;DHT22;15802;45.654;13.804;2023-06-04T00:30:52;20.60;99.90
28608;DHT22;15802;45.654;13.804;2023-06-04T00:33:17;20.60;99.90
28608;DHT22;15802;45.654;13.804;2023-06-04T00:35:43;20.60;99.90
28608;DHT22;15802;45.654;13.804;2023-06-04T00:38:08;20.60;99.90
28608;DHT22;15802;45.654;13.804;2023-06-04T00:40:34;20.60;99.90
28608;DHT22;15802;45.654;13.804;2023-06-04T00:43:00;20.60;99.90
28608;DHT22;15802;45.654;13.804;2023-06-04T00:45:25;20.60;99.90
28608;DHT22;15802;45.654;13.804;2023-06-04T00:47:52;20.50;99.90
28608;DHT22;15802;45.654;13.804;2023-06-04T00:50:18;20.50;99.90
28608;DHT22;15802;45.654;13.804;2023-06-04T00:52:46;20.50;99.90
28608;DHT22;15802;45.654;13.804;2023-06-04T00:55:12;20.60;99.90
28608;DHT22;15802;45.654;13.804;2023-06-04T00:57:38;20.50;99.90
28608;DHT22;15802;45.654;13.804;2023-06-04T01:00:04;20.50;99.90
28608;DHT22;15802;45.654;13.804;2023-06-04T01:02:31;20.50;99.90
28608;DHT22;15802;45.654;13.804;2023-06-04T01:05:11;20.50;99.90
28608;DHT22;15802;45.654;13.804;2023-06-04T01:07:39;20.50;99.90
28608;DHT22;15802;45.654;13.804;2023-06-04T01:10:10;20.50;99.90
28608;DHT22;15802;45.654;13.804;2023-06-04T01:12:39;20.50;99.90
28608;DHT22;15802;45.654;13.804;2023-06-04T01:15:04;20.60;99.90
28608;DHT22;15802;45.654;13.804;2023-06-04T01:17:32;20.60;99.90
28608;DHT22;15802;45.654;13.804;2023-06-04T01:20:07;20.60;99.90
28608;DHT22;15802;45.654;13.804;2023-06-04T01:22:48;20.60;99.90
28608;DHT22;15802;45.654;13.804;2023-06-04T01:25:21;20.50;99.90
28608;DHT22;15802;45.654;13.804;2023-06-04T01:27:49;20.60;99.90
28608;DHT22;15802;45.654;13.804;2023-06-04T01:30:21;20.60;99.90
28608;DHT22;15802;45.654;13.804;2023-06-04T01:32:48;20.50;99.90
28608;DHT22;15802;45.654;13.804;2023-06-04T01:35:14;20.50;99.90
28608;DHT22;15802;45.654;13.804;2023-06-04T01:37:40;20.50;99.90
28608;DHT22;15802;45.654;13.804;2023-06-04T01:40:05;20.50;99.90
28608;DHT22;15802;45.654;13.804;2023-06-04T01:42:34;20.50;99.90
28608;DHT22;15802;45.654;13.804;2023-06-04T01:45:00;20.50;99.90
28608;DHT22;15802;45.654;13.804;2023-06-04T01:47:26;20.50;99.90
28608;DHT22;15802;45.654;13.804;2023-06-04T01:49:51;20.50;99.90
28608;DHT22;15802;45.654;13.804;2023-06-04T01:52:17;20.40;99.90
28608;DHT22;15802;45.654;13.804;2023-06-04T01:54:42;20.30;99.90
28608;DHT22;15802;45.654;13.804;2023-06-04T01:57:08;20.30;99.90
28608;DHT22;15802;45.654;13.804;2023-06-04T01:59:35;20.30;99.90
28608;DHT22;15802;45.654;13.804;2023-06-04T02:02:02;20.20;99.90
28608;DHT22;15802;45.654;13.804;2023-06-04T02:04:27;20.30;99.90
28608;DHT22;15802;45.654;13.804;2023-06-04T02:06:53;20.20;99.90
28608;DHT22;15802;45.654;13.804;2023-06-04T02:09:19;20.30;99.90
28608;DHT22;15802;45.654;13.804;2023-06-04T02:11:44;20.30;99.90
28608;DHT22;15802;45.654;13.804;2023-06-04T02:14:10;20.20;99.90
28608;DHT22;15802;45.654;13.804;2023-06-04T02:16:35;20.20;99.90
28608;DHT22;15802;45.654;13.804;2023-06-04T02:19:03;20.20;99.90
28608;DHT22;15802;45.654;13.804;2023-06-04T02:21:28;20.10;99.90
28608;DHT22;15802;45.654;13.804;2023-06-04T02:23:54;20.10;99.90
28608;DHT22;15802;45.654;13.804;2023-06-04T02:26:19;20.10;99.90
28608;DHT22;15802;45.654;13.804;2023-06-04T02:28:45;20.10;99.90
28608;DHT22;15802;45.654;13.804;2023-06-04T02:31:11;20.20;99.90
28608;DHT22;15802;45.654;13.804;2023-06-04T02:33:37;20.20;99.90
28608;DHT22;15802;45.654;13.804;2023-06-04T02:36:03;20.30;99.90
28608;DHT22;15802;45.654;13.804;2023-06-04T02:38:28;20.30;99.90
28608;DHT22;15802;45.654;13.804;2023-06-04T02:40:54;20.20;99.90
28608;DHT22;15802;45.654;13.804;2023-06-04T02:43:20;20.30;99.90
28608;DHT22;15802;45.654;13.804;2023-06-04T02:45:45;20.30;99.90
28608;DHT22;15802;45.654;13.804;2023-06-04T02:48:11;20.30;99.90
28608;DHT22;15802;45.654;13.804;2023-06-04T02:50:36;20.40;99.90
28608;DHT22;15802;45.654;13.804;2023-06-04T02:53:02;20.40;99.90
28608;DHT22;15802;45.654;13.804;2023-06-04T02:55:28;20.50;99.90
28608;DHT22;15802;45.654;13.804;2023-06-04T02:57:53;20.50;99.90
28608;DHT22;15802;45.654;13.804;2023-06-04T03:00:19;20.60;99.90
28608;DHT22;15802;45.654;13.804;2023-06-04T03:02:45;20.50;99.90
28608;DHT22;15802;45.654;13.804;2023-06-04T03:05:12;20.50;99.90
28608;DHT22;15802;45.654;13.804;2023-06-04T03:07:38;20.50;99.90
28608;DHT22;15802;45.654;13.804;2023-06-04T03:10:04;20.50;99.90
28608;DHT22;15802;45.654;13.804;2023-06-04T03:12:30;20.50;99.90
28608;DHT22;15802;45.654;13.804;2023-06-04T03:14:56;20.50;99.90
28608;DHT22;15802;45.654;13.804;2023-06-04T03:17:21;20.50;99.90
28608;DHT22;15802;45.654;13.804;2023-06-04T03:19:47;20.50;99.90
28608;DHT22;15802;45.654;13.804;2023-06-04T03:22:13;20.50;99.90
28608;DHT22;15802;45.654;13.804;2023-06-04T03:24:40;20.60;99.90
28608;DHT22;15802;45.654;13.804;2023-06-04T03:27:06;20.60;99.90
28608;DHT22;15802;45.654;13.804;2023-06-04T03:29:32;20.60;99.90
28608;DHT22;15802;45.654;13.804;2023-06-04T03:31:58;20.60;99.90
28608;DHT22;15802;45.654;13.804;2023-06-04T03:34:24;20.60;99.90
28608;DHT22;15802;45.654;13.804;2023-06-04T03:36:51;20.60;99.90
28608;DHT22;15802;45.654;13.804;2023-06-04T03:39:17;20.60;99.90
28608;DHT22;15802;45.654;13.804;2023-06-04T03:41:43;20.60;99.90
28608;DHT22;15802;45.654;13.804;2023-06-04T03:44:08;20.50;99.90
28608;DHT22;15802;45.654;13.804;2023-06-04T03:46:34;20.50;99.90
28608;DHT22;15802;45.654;13.804;2023-06-04T03:49:00;20.50;99.90
28608;DHT22;15802;45.654;13.804;2023-06-04T03:51:26;20.50;99.90
28608;DHT22;15802;45.654;13.804;2023-06-04T03:53:52;20.50;99.90
28608;DHT22;15802;45.654;13.804;2023-06-04T03:56:17;20.50;99.90
28608;DHT22;15802;45.654;13.804;2023-06-04T03:58:43;20.60;99.90
28608;DHT22;15802;45.654;13.804;2023-06-04T04:01:08;20.60;99.90
28608;DHT22;15802;45.654;13.804;2023-06-04T04:03:36;20.70;99.90
28608;DHT22;15802;45.654;13.804;2023-06-04T04:06:01;20.70;99.90
28608;DHT22;15802;45.654;13.804;2023-06-04T04:08:27;20.70;99.90
28608;DHT22;15802;45.654;13.804;2023-06-04T04:10:57;20.70;99.90
28608;DHT22;15802;45.654;13.804;2023-06-04T04:13:22;20.70;99.90
28608;DHT22;15802;45.654;13.804;2023-06-04T04:15:48;20.80;99.90
28608;DHT22;15802;45.654;13.804;2023-06-04T04:18:18;20.70;99.90
28608;DHT22;15802;45.654;13.804;2023-06-04T04:20:45;20.80;99.90
28608;DHT22;15802;45.654;13.804;2023-06-04T04:23:11;20.70;99.90
28608;DHT22;15802;45.654;13.804;2023-06-04T04:25:37;20.80;99.90
28608;DHT22;15802;45.654;13.804;2023-06-04T04:28:03;20.80;99.90
28608;DHT22;15802;45.654;13.804;2023-06-04T04:30:33;20.90;99.90
28608;DHT22;15802;45.654;13.804;2023-06-04T04:33:00;21.00;99.90
28608;DHT22;15802;45.654;13.804;2023-06-04T04:35:26;21.00;99.90
28608;DHT22;15802;45.654;13.804;2023-06-04T04:37:52;21.00;99.90
28608;DHT22;15802;45.654;13.804;2023-06-04T04:40:17;21.00;99.90
28608;DHT22;15802;45.654;13.804;2023-06-04T04:42:43;21.00;99.90
28608;DHT22;15802;45.654;13.804;2023-06-04T04:45:09;21.00;99.90
28608;DHT22;15802;45.654;13.804;2023-06-04T04:47:34;21.00;99.90
28608;DHT22;15802;45.654;13.804;2023-06-04T04:50:00;21.10;99.90
28608;DHT22;15802;45.654;13.804;2023-06-04T04:52:26;21.10;99.90
28608;DHT22;15802;45.654;13.804;2023-06-04T04:54:51;21.10;99.90
28608;DHT22;15802;45.654;13.804;2023-06-04T04:57:21;21.20;99.90
28608;DHT22;15802;45.654;13.804;2023-06-04T04:59:47;21.20;99.90
28608;DHT22;15802;45.654;13.804;2023-06-04T05:02:13;21.20;99.90
28608;DHT22;15802;45.654;13.804;2023-06-04T05:04:38;21.20;99.90
28608;DHT22;15802;45.654;13.804;2023-06-04T05:07:04;21.30;99.90
28608;DHT22;15802;45.654;13.804;2023-06-04T05:09:30;21.50;99.90
28608;DHT22;15802;45.654;13.804;2023-06-04T05:11:55;21.50;99.90
28608;DHT22;15802;45.654;13.804;2023-06-04T05:14:21;21.70;99.90
28608;DHT22;15802;45.654;13.804;2023-06-04T05:16:47;21.80;99.90
28608;DHT22;15802;45.654;13.804;2023-06-04T05:19:14;21.80;99.90
28608;DHT22;15802;45.654;13.804;2023-06-04T05:21:41;21.80;99.90
28608;DHT22;15802;45.654;13.804;2023-06-04T05:24:07;21.80;99.90
28608;DHT22;15802;45.654;13.804;2023-06-04T05:26:33;21.90;99.90
28608;DHT22;15802;45.654;13.804;2023-06-04T05:28:59;21.90;99.90
28608;DHT22;15802;45.654;13.804;2023-06-04T05:31:24;21.90;99.90
28608;DHT22;15802;45.654;13.804;2023-06-04T05:33:53;21.90;99.90
28608;DHT22;15802;45.654;13.804;2023-06-04T05:36:19;22.00;99.90
28608;DHT22;15802;45.654;13.804;2023-06-04T05:38:45;22.00;99.90
28608;DHT22;15802;45.654;13.804;2023-06-04T05:41:11;22.00;99.90
28608;DHT22;15802;45.654;13.804;2023-06-04T05:43:37;22.10;99.90
28608;DHT22;15802;45.654;13.804;2023-06-04T05:46:03;22.20;99.90
28608;DHT22;15802;45.654;13.804;2023-06-04T05:48:28;22.30;99.90
28608;DHT22;15802;45.654;13.804;2023-06-04T05:50:54;22.30;99.90
28608;DHT22;15802;45.654;13.804;2023-06-04T05:53:19;22.30;99.90
28608;DHT22;15802;45.654;13.804;2023-06-04T05:55:45;22.30;99.90
28608;DHT22;15802;45.654;13.804;2023-06-04T05:58:10;22.40;99.90
28608;DHT22;15802;45.654;13.804;2023-06-04T06:00:36;22.40;99.90
28608;DHT22;15802;45.654;13.804;2023-06-04T06:03:02;22.40;99.90
28608;DHT22;15802;45.654;13.804;2023-06-04T06:05:27;22.40;99.90
28608;DHT22;15802;45.654;13.804;2023-06-04T06:07:53;22.40;99.90
28608;DHT22;15802;45.654;13.804;2023-06-04T06:10:19;22.40;99.90
28608;DHT22;15802;45.654;13.804;2023-06-04T06:12:44;22.60;99.90
28608;DHT22;15802;45.654;13.804;2023-06-04T06:15:10;22.60;99.90
28608;DHT22;15802;45.654;13.804;2023-06-04T06:17:37;22.70;99.90
28608;DHT22;15802;45.654;13.804;2023-06-04T06:20:03;22.80;99.90
28608;DHT22;15802;45.654;13.804;2023-06-04T06:22:33;23.00;99.90
28608;DHT22;15802;45.654;13.804;2023-06-04T06:24:59;23.00;99.90
28608;DHT22;15802;45.654;13.804;2023-06-04T06:27:25;23.10;99.90
28608;DHT22;15802;45.654;13.804;2023-06-04T06:29:50;23.20;99.90
28608;DHT22;15802;45.654;13.804;2023-06-04T06:32:16;23.20;99.90
28608;DHT22;15802;45.654;13.804;2023-06-04T06:34:42;23.20;99.90
28608;DHT22;15802;45.654;13.804;2023-06-04T06:37:07;23.10;99.90
28608;DHT22;15802;45.654;13.804;2023-06-04T06:39:33;23.10;99.90
28608;DHT22;15802;45.654;13.804;2023-06-04T06:41:59;23.10;99.90
28608;DHT22;15802;45.654;13.804;2023-06-04T06:44:24;23.20;99.90
28608;DHT22;15802;45.654;13.804;2023-06-04T06:46:50;23.20;99.90
28608;DHT22;15802;45.654;13.804;2023-06-04T06:49:16;23.20;99.90
28608;DHT22;15802;45.654;13.804;2023-06-04T06:51:42;23.30;99.90
28608;DHT22;15802;45.654;13.804;2023-06-04T06:54:09;23.40;99.90
28608;DHT22;15802;45.654;13.804;2023-06-04T06:56:35;23.50;99.90
28608;DHT22;15802;45.654;13.804;2023-06-04T06:59:01;23.50;99.90
28608;DHT22;15802;45.654;13.804;2023-06-04T07:01:26;23.60;99.90
28608;DHT22;15802;45.654;13.804;2023-06-04T07:03:52;23.60;99.90
28608;DHT22;15802;45.654;13.804;2023-06-04T07:06:18;23.60;99.90
28608;DHT22;15802;45.654;13.804;2023-06-04T07:08:43;23.70;99.90
28608;DHT22;15802;45.654;13.804;2023-06-04T07:11:09;23.70;99.90
28608;DHT22;15802;45.654;13.804;2023-06-04T07:13:38;23.70;99.90
28608;DHT22;15802;45.654;13.804;2023-06-04T07:16:04;23.70;99.90
28608;DHT22;15802;45.654;13.804;2023-06-04T07:18:30;23.80;99.90
28608;DHT22;15802;45.654;13.804;2023-06-04T07:20:55;23.80;99.90
28608;DHT22;15802;45.654;13.804;2023-06-04T07:23:21;23.80;99.90
28608;DHT22;15802;45.654;13.804;2023-06-04T07:25:47;23.80;99.90
28608;DHT22;15802;45.654;13.804;2023-06-04T07:28:12;23.90;99.90
28608;DHT22;15802;45.654;13.804;2023-06-04T07:30:38;24.00;99.90
28608;DHT22;15802;45.654;13.804;2023-06-04T07:33:04;24.00;99.90
28608;DHT22;15802;45.654;13.804;2023-06-04T07:35:29;24.00;99.90
28608;DHT22;15802;45.654;13.804;2023-06-04T07:37:55;23.90;99.90
28608;DHT22;15802;45.654;13.804;2023-06-04T07:40:21;23.70;99.90
28608;DHT22;15802;45.654;13.804;2023-06-04T07:42:46;23.60;99.90
28608;DHT22;15802;45.654;13.804;2023-06-04T07:45:13;23.50;99.90
28608;DHT22;15802;45.654;13.804;2023-06-04T07:47:39;23.50;99.90
28608;DHT22;15802;45.654;13.804;2023-06-04T07:50:05;23.50;99.90
28608;DHT22;15802;45.654;13.804;2023-06-04T07:52:31;23.50;99.90
28608;DHT22;15802;45.654;13.804;2023-06-04T07:54:57;23.60;99.90
28608;DHT22;15802;45.654;13.804;2023-06-04T07:57:23;23.70;99.90
28608;DHT22;15802;45.654;13.804;2023-06-04T07:59:49;23.80;99.90
28608;DHT22;15802;45.654;13.804;2023-06-04T08:02:15;23.80;99.90
28608;DHT22;15802;45.654;13.804;2023-06-04T08:04:41;23.80;99.90
28608;DHT22;15802;45.654;13.804;2023-06-04T08:07:06;23.80;99.90
28608;DHT22;15802;45.654;13.804;2023-06-04T08:09:32;23.80;99.90
28608;DHT22;15802;45.654;13.804;2023-06-04T08:11:57;23.80;99.90
28608;DHT22;15802;45.654;13.804;2023-06-04T08:14:23;23.70;99.90
28608;DHT22;15802;45.654;13.804;2023-06-04T08:16:52;23.70;99.90
28608;DHT22;15802;45.654;13.804;2023-06-04T08:19:18;23.80;99.90
28608;DHT22;15802;45.654;13.804;2023-06-04T08:21:43;23.80;99.90
28608;DHT22;15802;45.654;13.804;2023-06-04T08:24:10;24.00;99.90
28608;DHT22;15802;45.654;13.804;2023-06-04T08:26:36;24.10;99.90
28608;DHT22;15802;45.654;13.804;2023-06-04T08:29:02;24.00;99.90
28608;DHT22;15802;45.654;13.804;2023-06-04T08:31:28;24.10;99.90
28608;DHT22;15802;45.654;13.804;2023-06-04T08:33:54;24.20;99.90
28608;DHT22;15802;45.654;13.804;2023-06-04T08:36:20;24.30;99.90
28608;DHT22;15802;45.654;13.804;2023-06-04T08:38:45;24.40;99.90
28608;DHT22;15802;45.654;13.804;2023-06-04T08:41:20;24.50;99.90
28608;DHT22;15802;45.654;13.804;2023-06-04T08:43:47;24.60;99.90
28608;DHT22;15802;45.654;13.804;2023-06-04T08:46:15;24.60;99.90
28608;DHT22;15802;45.654;13.804;2023-06-04T08:48:41;24.50;99.90
28608;DHT22;15802;45.654;13.804;2023-06-04T08:51:06;24.50;99.90
28608;DHT22;15802;45.654;13.804;2023-06-04T08:53:34;24.40;99.90
28608;DHT22;15802;45.654;13.804;2023-06-04T08:56:00;24.40;99.90
28608;DHT22;15802;45.654;13.804;2023-06-04T08:58:27;24.40;99.90
28608;DHT22;15802;45.654;13.804;2023-06-04T09:00:56;24.50;99.90
28608;DHT22;15802;45.654;13.804;2023-06-04T09:03:22;24.60;99.90
28608;DHT22;15802;45.654;13.804;2023-06-04T09:05:49;24.60;99.90
28608;DHT22;15802;45.654;13.804;2023-06-04T09:08:16;24.60;99.90
28608;DHT22;15802;45.654;13.804;2023-06-04T09:10:42;24.70;99.90
28608;DHT22;15802;45.654;13.804;2023-06-04T09:13:10;24.80;99.90
28608;DHT22;15802;45.654;13.804;2023-06-04T09:15:36;25.00;99.90
28608;DHT22;15802;45.654;13.804;2023-06-04T09:18:01;25.20;99.90
28608;DHT22;15802;45.654;13.804;2023-06-04T09:20:27;25.20;99.90
28608;DHT22;15802;45.654;13.804;2023-06-04T09:22:53;25.30;99.90
28608;DHT22;15802;45.654;13.804;2023-06-04T09:25:21;25.40;99.90
28608;DHT22;15802;45.654;13.804;2023-06-04T09:27:47;25.40;99.90
28608;DHT22;15802;45.654;13.804;2023-06-04T09:30:13;25.20;99.90
28608;DHT22;15802;45.654;13.804;2023-06-04T09:32:39;25.20;99.90
28608;DHT22;15802;45.654;13.804;2023-06-04T09:35:08;25.10;99.90
28608;DHT22;15802;45.654;13.804;2023-06-04T09:37:34;24.70;99.90
28608;DHT22;15802;45.654;13.804;2023-06-04T09:40:00;24.60;99.90
28608;DHT22;15802;45.654;13.804;2023-06-04T09:42:26;24.50;99.90
28608;DHT22;15802;45.654;13.804;2023-06-04T09:44:52;24.40;99.90
28608;DHT22;15802;45.654;13.804;2023-06-04T09:47:17;24.40;99.90
28608;DHT22;15802;45.654;13.804;2023-06-04T09:49:43;24.30;99.90
28608;DHT22;15802;45.654;13.804;2023-06-04T09:52:09;24.30;99.90
28608;DHT22;15802;45.654;13.804;2023-06-04T09:54:36;24.30;99.90
28608;DHT22;15802;45.654;13.804;2023-06-04T09:57:02;24.40;99.90
28608;DHT22;15802;45.654;13.804;2023-06-04T09:59:30;24.40;99.90
28608;DHT22;15802;45.654;13.804;2023-06-04T10:01:57;24.40;99.90
28608;DHT22;15802;45.654;13.804;2023-06-04T10:04:24;24.20;99.90
28608;DHT22;15802;45.654;13.804;2023-06-04T10:06:50;24.10;99.90
28608;DHT22;15802;45.654;13.804;2023-06-04T10:09:16;24.10;99.90
28608;DHT22;15802;45.654;13.804;2023-06-04T10:11:44;24.20;99.90
28608;DHT22;15802;45.654;13.804;2023-06-04T10:14:31;24.30;99.90
28608;DHT22;15802;45.654;13.804;2023-06-04T10:17:01;24.50;99.90
28608;DHT22;15802;45.654;13.804;2023-06-04T10:19:27;24.60;99.90
28608;DHT22;15802;45.654;13.804;2023-06-04T10:21:53;24.60;99.90
28608;DHT22;15802;45.654;13.804;2023-06-04T10:24:19;24.60;99.90
28608;DHT22;15802;45.654;13.804;2023-06-04T10:26:46;24.50;99.90
28608;DHT22;15802;45.654;13.804;2023-06-04T10:29:12;24.30;99.90
28608;DHT22;15802;45.654;13.804;2023-06-04T10:31:39;24.40;99.90
28608;DHT22;15802;45.654;13.804;2023-06-04T10:34:06;24.30;99.90
28608;DHT22;15802;45.654;13.804;2023-06-04T10:36:41;24.10;99.90
28608;DHT22;15802;45.654;13.804;2023-06-04T10:39:07;24.30;99.90
28608;DHT22;15802;45.654;13.804;2023-06-04T10:41:33;24.30;99.90
28608;DHT22;15802;45.654;13.804;2023-06-04T10:44:01;24.50;99.90
28608;DHT22;15802;45.654;13.804;2023-06-04T10:46:36;24.50;99.90
28608;DHT22;15802;45.654;13.804;2023-06-04T10:49:02;24.60;99.90
28608;DHT22;15802;45.654;13.804;2023-06-04T10:51:28;24.60;99.90
28608;DHT22;15802;45.654;13.804;2023-06-04T10:53:56;24.70;99.90
28608;DHT22;15802;45.654;13.804;2023-06-04T10:56:25;24.80;99.90
28608;DHT22;15802;45.654;13.804;2023-06-04T10:58:51;25.00;99.90
28608;DHT22;15802;45.654;13.804;2023-06-04T11:01:25;25.20;99.90
28608;DHT22;15802;45.654;13.804;2023-06-04T11:03:51;25.20;99.90
28608;DHT22;15802;45.654;13.804;2023-06-04T11:06:17;25.30;99.90
28608;DHT22;15802;45.654;13.804;2023-06-04T11:08:42;25.40;99.90
28608;DHT22;15802;45.654;13.804;2023-06-04T11:11:12;25.40;99.90
28608;DHT22;15802;45.654;13.804;2023-06-04T11:13:39;25.40;99.90
28608;DHT22;15802;45.654;13.804;2023-06-04T11:16:20;25.10;99.90
28608;DHT22;15802;45.654;13.804;2023-06-04T11:18:54;24.70;99.90
28608;DHT22;15802;45.654;13.804;2023-06-04T11:21:20;24.40;99.90
28608;DHT22;15802;45.654;13.804;2023-06-04T11:23:46;24.30;99.90
28608;DHT22;15802;45.654;13.804;2023-06-04T11:26:12;24.30;99.90
28608;DHT22;15802;45.654;13.804;2023-06-04T11:28:38;24.40;99.90
28608;DHT22;15802;45.654;13.804;2023-06-04T11:31:04;24.40;99.90
28608;DHT22;15802;45.654;13.804;2023-06-04T11:33:41;24.30;99.90
28608;DHT22;15802;45.654;13.804;2023-06-04T11:36:06;24.20;99.90
28608;DHT22;15802;45.654;13.804;2023-06-04T11:38:32;24.10;99.90
28608;DHT22;15802;45.654;13.804;2023-06-04T11:40:58;24.10;99.90
28608;DHT22;15802;45.654;13.804;2023-06-04T11:43:25;24.10;99.90
28608;DHT22;15802;45.654;13.804;2023-06-04T11:45:51;24.40;99.90
28608;DHT22;15802;45.654;13.804;2023-06-04T11:48:17;24.60;99.90
28608;DHT22;15802;45.654;13.804;2023-06-04T11:50:42;24.90;99.90
28608;DHT22;15802;45.654;13.804;2023-06-04T11:53:09;25.00;99.90
28608;DHT22;15802;45.654;13.804;2023-06-04T11:55:35;25.10;99.90
28608;DHT22;15802;45.654;13.804;2023-06-04T11:58:00;24.80;99.90
28608;DHT22;15802;45.654;13.804;2023-06-04T12:00:26;24.80;99.90
28608;DHT22;15802;45.654;13.804;2023-06-04T12:02:54;24.80;99.90
28608;DHT22;15802;45.654;13.804;2023-06-04T12:05:22;24.90;99.90
28608;DHT22;15802;45.654;13.804;2023-06-04T12:07:51;24.90;99.90
28608;DHT22;15802;45.654;13.804;2023-06-04T12:10:18;24.90;99.90
28608;DHT22;15802;45.654;13.804;2023-06-04T12:12:43;24.90;99.90
28608;DHT22;15802;45.654;13.804;2023-06-04T12:15:09;25.10;99.90
28608;DHT22;15802;45.654;13.804;2023-06-04T12:17:36;25.20;99.90
28608;DHT22;15802;45.654;13.804;2023-06-04T12:20:02;25.40;99.90
28608;DHT22;15802;45.654;13.804;2023-06-04T12:22:28;25.60;99.90
28608;DHT22;15802;45.654;13.804;2023-06-04T12:24:54;25.50;99.90
28608;DHT22;15802;45.654;13.804;2023-06-04T12:27:23;25.40;99.90
28608;DHT22;15802;45.654;13.804;2023-06-04T12:29:56;25.30;99.90
28608;DHT22;15802;45.654;13.804;2023-06-04T12:32:22;25.00;99.90
28608;DHT22;15802;45.654;13.804;2023-06-04T12:34:48;25.10;99.90
28608;DHT22;15802;45.654;13.804;2023-06-04T12:37:14;25.30;99.90
28608;DHT22;15802;45.654;13.804;2023-06-04T12:39:39;25.40;99.90
28608;DHT22;15802;45.654;13.804;2023-06-04T12:42:05;25.50;99.90
28608;DHT22;15802;45.654;13.804;2023-06-04T12:44:32;25.50;99.90
28608;DHT22;15802;45.654;13.804;2023-06-04T12:46:57;25.40;99.90
28608;DHT22;15802;45.654;13.804;2023-06-04T12:49:23;25.30;99.90
28608;DHT22;15802;45.654;13.804;2023-06-04T12:51:49;25.30;99.90
28608;DHT22;15802;45.654;13.804;2023-06-04T12:54:14;25.30;99.90
28608;DHT22;15802;45.654;13.804;2023-06-04T12:56:40;25.30;99.90
28608;DHT22;15802;45.654;13.804;2023-06-04T12:59:06;25.30;99.90
28608;DHT22;15802;45.654;13.804;2023-06-04T13:01:32;25.20;99.90
28608;DHT22;15802;45.654;13.804;2023-06-04T13:03:58;25.00;99.90
28608;DHT22;15802;45.654;13.804;2023-06-04T13:06:23;25.00;99.90
28608;DHT22;15802;45.654;13.804;2023-06-04T13:08:49;25.10;99.90
28608;DHT22;15802;45.654;13.804;2023-06-04T13:11:15;25.20;99.90
28608;DHT22;15802;45.654;13.804;2023-06-04T13:13:40;25.40;99.90
28608;DHT22;15802;45.654;13.804;2023-06-04T13:16:07;25.50;99.90
28608;DHT22;15802;45.654;13.804;2023-06-04T13:18:32;25.60;99.90
28608;DHT22;15802;45.654;13.804;2023-06-04T13:20:58;25.70;99.90
28608;DHT22;15802;45.654;13.804;2023-06-04T13:23:24;25.70;99.90
28608;DHT22;15802;45.654;13.804;2023-06-04T13:25:49;25.70;99.90
28608;DHT22;15802;45.654;13.804;2023-06-04T13:28:15;25.80;99.90
28608;DHT22;15802;45.654;13.804;2023-06-04T13:30:42;25.70;99.90
28608;DHT22;15802;45.654;13.804;2023-06-04T13:33:08;25.80;99.90
28608;DHT22;15802;45.654;13.804;2023-06-04T13:35:34;25.80;99.90
28608;DHT22;15802;45.654;13.804;2023-06-04T13:38:00;25.80;99.90
28608;DHT22;15802;45.654;13.804;2023-06-04T13:40:25;25.80;99.90
28608;DHT22;15802;45.654;13.804;2023-06-04T13:42:51;25.60;99.90
28608;DHT22;15802;45.654;13.804;2023-06-04T13:45:17;25.70;99.90
28608;DHT22;15802;45.654;13.804;2023-06-04T13:47:46;25.70;99.90
28608;DHT22;15802;45.654;13.804;2023-06-04T13:50:12;25.80;99.90
28608;DHT22;15802;45.654;13.804;2023-06-04T13:52:37;25.90;99.90
28608;DHT22;15802;45.654;13.804;2023-06-04T13:55:03;25.90;99.90
28608;DHT22;15802;45.654;13.804;2023-06-04T13:57:29;25.90;99.90
28608;DHT22;15802;45.654;13.804;2023-06-04T13:59:54;25.90;99.90
28608;DHT22;15802;45.654;13.804;2023-06-04T14:02:20;25.90;99.90
28608;DHT22;15802;45.654;13.804;2023-06-04T14:04:46;25.90;99.90
28608;DHT22;15802;45.654;13.804;2023-06-04T14:07:12;25.90;99.90
28608;DHT22;15802;45.654;13.804;2023-06-04T14:09:37;26.00;99.90
28608;DHT22;15802;45.654;13.804;2023-06-04T14:12:03;26.10;99.90
28608;DHT22;15802;45.654;13.804;2023-06-04T14:14:29;26.00;99.90
28608;DHT22;15802;45.654;13.804;2023-06-04T14:17:02;26.00;99.90
28608;DHT22;15802;45.654;13.804;2023-06-04T14:19:28;26.10;99.90
28608;DHT22;15802;45.654;13.804;2023-06-04T14:21:53;26.10;99.90
28608;DHT22;15802;45.654;13.804;2023-06-04T14:24:19;26.20;99.90
28608;DHT22;15802;45.654;13.804;2023-06-04T14:26:45;26.30;99.90
28608;DHT22;15802;45.654;13.804;2023-06-04T14:29:11;26.30;99.90
28608;DHT22;15802;45.654;13.804;2023-06-04T14:31:36;26.30;99.90
28608;DHT22;15802;45.654;13.804;2023-06-04T14:34:02;26.20;99.90
28608;DHT22;15802;45.654;13.804;2023-06-04T14:36:28;26.20;99.90
28608;DHT22;15802;45.654;13.804;2023-06-04T14:38:54;26.10;99.90
28608;DHT22;15802;45.654;13.804;2023-06-04T14:41:19;26.10;99.90
28608;DHT22;15802;45.654;13.804;2023-06-04T14:43:45;26.20;99.90
28608;DHT22;15802;45.654;13.804;2023-06-04T14:46:11;26.20;99.90
28608;DHT22;15802;45.654;13.804;2023-06-04T14:48:36;26.30;99.90
28608;DHT22;15802;45.654;13.804;2023-06-04T14:51:02;26.20;99.90
28608;DHT22;15802;45.654;13.804;2023-06-04T14:53:28;26.30;99.90
28608;DHT22;15802;45.654;13.804;2023-06-04T14:55:53;26.30;99.90
28608;DHT22;15802;45.654;13.804;2023-06-04T14:58:19;26.50;99.90
28608;DHT22;15802;45.654;13.804;2023-06-04T15:00:45;26.60;99.90
28608;DHT22;15802;45.654;13.804;2023-06-04T15:03:10;26.70;99.90
28608;DHT22;15802;45.654;13.804;2023-06-04T15:05:37;26.70;99.90
28608;DHT22;15802;45.654;13.804;2023-06-04T15:08:03;26.50;99.90
28608;DHT22;15802;45.654;13.804;2023-06-04T15:10:28;26.40;99.90